Terminal Aerodrome Forecast
Issued by NWS Goodland, KS

Home | Current Version | Previous Version | Text Only | Print | Product List | Glossary On
Versions: 1 2 3 4 5 6 7 8 9 10 11 12 13 14 15 16 17 18 19 20 21 22 23 24
000
FTUS43 KGLD 181136 CCA
TAFGLD
TAF COR
KGLD 181136Z 1812/1912 VRB04KT 2SM BR BKN002
      TEMPO 1812/1813 5SM BR SCT002
     FM181330 19008KT P6SM SKC
     FM181800 20010G16KT P6SM FEW050
     FM190000 20010KT P6SM SKC=

USA.gov is the U.S. government's official web portal to all federal, state and local government web resources and services.